Time;durP1;ratioP1;P1;durP2;ratioP2;P2;SDS_P1;SDS_P2;PMS_P1;PMS_P2;Temp;Humidity;BMP_temperature;BMP_pressure;BME280_temperature;BME280_humidity;BME280_pressure;Samples;Min_cycle;Max_cycle;Signal;HPM_P1;HPM_P2
2023/12/13 00:01:42;;;;;;;31.88;14.43;;;7.30;99.90;;;;;;5084933;28;20044;-78
2023/12/13 00:04:07;;;;;;;28.92;13.15;;;7.30;99.90;;;;;;5051702;28;20040;-77
2023/12/13 00:06:34;;;;;;;31.60;13.68;;;7.20;99.90;;;;;;5044394;28;20030;-76
2023/12/13 00:09:01;;;;;;;29.98;14.00;;;7.20;99.90;;;;;;5044205;28;20121;-78
2023/12/13 00:11:26;;;;;;;28.90;12.63;;;7.20;99.90;;;;;;5046474;28;20123;-77
2023/12/13 00:13:52;;;;;;;30.38;12.40;;;7.20;99.90;;;;;;5048227;28;20033;-78
2023/12/13 00:16:19;;;;;;;28.33;12.25;;;7.10;99.90;;;;;;5052072;28;20106;-78
2023/12/13 00:18:47;;;;;;;29.58;12.40;;;7.20;99.90;;;;;;5034216;28;20056;-78
2023/12/13 00:21:15;;;;;;;25.10;11.60;;;7.10;99.90;;;;;;5053789;28;20396;-78
2023/12/13 00:23:42;;;;;;;29.85;12.25;;;7.10;99.90;;;;;;5053109;28;20167;-78
2023/12/13 00:26:16;;;;;;;23.70;11.45;;;7.10;99.90;;;;;;5052548;28;20033;-78
2023/12/13 00:28:42;;;;;;;24.40;11.40;;;7.10;99.90;;;;;;5052935;28;20101;-77
2023/12/13 00:31:11;;;;;;;21.50;9.85;;;7.10;99.90;;;;;;5051992;28;20047;-77
2023/12/13 00:33:38;;;;;;;20.75;9.85;;;7.20;99.90;;;;;;5050631;28;20041;-78
2023/12/13 00:36:04;;;;;;;18.85;9.68;;;7.10;99.90;;;;;;5049626;28;20041;-79
2023/12/13 00:38:30;;;;;;;24.80;10.15;;;7.10;99.90;;;;;;5048635;28;20041;-78
2023/12/13 00:40:55;;;;;;;22.38;9.90;;;7.10;99.90;;;;;;5049556;28;20044;-78
2023/12/13 00:43:21;;;;;;;20.20;9.60;;;7.10;99.90;;;;;;5049183;28;20041;-78
2023/12/13 00:45:47;;;;;;;21.13;9.95;;;7.10;99.90;;;;;;5041285;28;20072;-78
2023/12/13 00:48:13;;;;;;;17.70;9.00;;;7.10;99.90;;;;;;5049749;28;20075;-78
2023/12/13 00:50:39;;;;;;;18.63;9.10;;;7.10;99.90;;;;;;5049726;28;20520;-79
2023/12/13 00:53:05;;;;;;;21.60;10.60;;;7.10;99.90;;;;;;5049513;28;20033;-79
2023/12/13 00:55:30;;;;;;;22.17;9.70;;;7.40;99.90;;;;;;5049265;28;20041;-78
2023/12/13 00:57:57;;;;;;;21.88;10.10;;;7.50;99.90;;;;;;5032971;28;20420;-78
2023/12/13 01:00:23;;;;;;;21.83;10.68;;;7.10;99.90;;;;;;5049308;28;20082;-79
2023/12/13 01:02:48;;;;;;;22.25;10.48;;;7.10;99.90;;;;;;5028771;28;20459;-79
2023/12/13 01:05:14;;;;;;;24.95;11.35;;;7.10;99.90;;;;;;5046778;28;20067;-79
2023/12/13 01:07:40;;;;;;;23.05;10.88;;;7.10;99.90;;;;;;5048186;28;20037;-79
2023/12/13 01:10:06;;;;;;;24.27;11.45;;;7.10;99.90;;;;;;5048620;28;20452;-79
2023/12/13 01:12:32;;;;;;;26.60;12.13;;;7.10;99.90;;;;;;5048310;28;20048;-79
2023/12/13 01:14:57;;;;;;;25.27;11.52;;;7.10;99.90;;;;;;5042517;28;20041;-79
2023/12/13 01:17:23;;;;;;;28.60;11.82;;;7.10;99.90;;;;;;5058953;28;20500;-79
2023/12/13 01:19:50;;;;;;;27.42;11.60;;;7.10;99.90;;;;;;5066383;28;20063;-79
2023/12/13 01:22:15;;;;;;;32.42;11.48;;;7.10;99.90;;;;;;5045495;28;20125;-79
2023/12/13 01:24:41;;;;;;;35.03;13.55;;;7.10;99.90;;;;;;5048780;28;20037;-79
2023/12/13 01:27:07;;;;;;;30.45;12.43;;;7.10;99.90;;;;;;5049846;28;20044;-79
2023/12/13 01:29:32;;;;;;;28.45;12.18;;;7.10;99.90;;;;;;5047994;28;20099;-79
2023/12/13 01:31:58;;;;;;;27.50;11.95;;;7.10;99.90;;;;;;5047914;28;20116;-79
2023/12/13 01:34:23;;;;;;;28.50;12.95;;;7.10;99.90;;;;;;5041194;28;20086;-79
2023/12/13 01:36:49;;;;;;;30.98;12.00;;;7.10;99.90;;;;;;5048683;28;20071;-79
2023/12/13 01:39:15;;;;;;;28.50;12.65;;;7.10;99.90;;;;;;5050112;28;20033;-79
2023/12/13 01:41:44;;;;;;;32.45;13.35;;;7.10;99.90;;;;;;5046768;28;20367;-79
2023/12/13 01:44:10;;;;;;;34.35;13.60;;;7.10;99.90;;;;;;5048962;28;20051;-79
2023/12/13 01:46:37;;;;;;;32.80;12.75;;;7.10;99.90;;;;;;5045714;28;20051;-79
2023/12/13 01:49:05;;;;;;;32.42;13.98;;;7.10;99.90;;;;;;5049328;28;20457;-79
2023/12/13 01:51:32;;;;;;;36.45;13.77;;;7.10;99.90;;;;;;5051271;28;20037;-79
2023/12/13 01:53:58;;;;;;;28.83;12.13;;;7.10;99.90;;;;;;5063090;28;20033;-79
2023/12/13 01:56:25;;;;;;;34.15;13.15;;;7.10;99.90;;;;;;5042329;28;20041;-79
2023/12/13 01:58:50;;;;;;;33.28;13.15;;;7.10;99.90;;;;;;5053238;28;20527;-79
2023/12/13 02:01:16;;;;;;;31.23;14.25;;;7.10;99.90;;;;;;5054338;28;20036;-79
2023/12/13 02:03:42;;;;;;;31.70;13.65;;;7.10;99.90;;;;;;5043472;28;20033;-79
2023/12/13 02:06:08;;;;;;;44.28;14.75;;;7.10;99.90;;;;;;5046700;28;20056;-79
2023/12/13 02:08:33;;;;;;;33.78;13.60;;;7.10;99.90;;;;;;5086353;28;20040;-79
2023/12/13 02:10:59;;;;;;;35.28;14.25;;;7.10;99.90;;;;;;5049206;28;20097;-79
2023/12/13 02:13:25;;;;;;;38.33;15.10;;;7.10;99.90;;;;;;5052610;28;20041;-79
2023/12/13 02:15:51;;;;;;;36.33;14.55;;;7.10;99.90;;;;;;5053055;28;20123;-79
2023/12/13 02:18:17;;;;;;;40.90;15.27;;;7.10;99.90;;;;;;5051900;28;20187;-79
2023/12/13 02:20:43;;;;;;;39.28;15.02;;;7.10;99.90;;;;;;5044224;28;20116;-79
2023/12/13 02:23:09;;;;;;;36.28;15.38;;;7.10;99.90;;;;;;5047329;28;20060;-79
2023/12/13 02:25:54;;;;;;;40.08;15.95;;;7.20;99.90;;;;;;5083156;28;20071;-79
2023/12/13 02:28:23;;;;;;;33.67;14.57;;;7.50;99.90;;;;;;5047014;28;20115;-79
2023/12/13 02:30:50;;;;;;;44.88;16.63;;;7.10;99.90;;;;;;5050021;28;20044;-79
2023/12/13 02:33:16;;;;;;;47.30;16.55;;;7.40;99.90;;;;;;5052056;28;20033;-79
2023/12/13 02:35:41;;;;;;;49.72;17.30;;;7.20;99.90;;;;;;5048010;28;20033;-79
2023/12/13 02:38:07;;;;;;;46.78;18.20;;;7.20;99.90;;;;;;5046401;28;20048;-79
2023/12/13 02:40:33;;;;;;;41.72;16.83;;;7.40;99.90;;;;;;5046353;28;20037;-79
2023/12/13 02:42:58;;;;;;;44.63;16.70;;;7.20;99.90;;;;;;5048437;28;20037;-79
2023/12/13 02:45:24;;;;;;;44.03;17.63;;;7.20;99.90;;;;;;5043413;28;20069;-79
2023/12/13 02:47:52;;;;;;;40.40;16.75;;;7.30;99.90;;;;;;5044004;28;20076;-79
2023/12/13 02:50:18;;;;;;;45.80;17.73;;;7.20;99.90;;;;;;5047102;28;20040;-79
2023/12/13 02:52:44;;;;;;;48.72;17.45;;;7.30;99.90;;;;;;5052225;28;20049;-79
2023/12/13 02:55:10;;;;;;;40.85;17.40;;;7.30;99.90;;;;;;5030509;28;20037;-79
2023/12/13 02:57:36;;;;;;;46.90;17.48;;;7.30;99.90;;;;;;5051225;28;20436;-79
2023/12/13 03:00:03;;;;;;;41.15;16.48;;;7.30;99.90;;;;;;5024864;28;20079;-79
2023/12/13 03:02:29;;;;;;;43.63;17.10;;;7.30;99.90;;;;;;5046504;28;20040;-79
2023/12/13 03:04:54;;;;;;;45.55;16.98;;;7.30;99.90;;;;;;5080853;28;20079;-79
2023/12/13 03:07:21;;;;;;;42.75;17.20;;;7.30;99.90;;;;;;5049930;28;20037;-79
2023/12/13 03:09:47;;;;;;;40.75;17.00;;;7.30;99.90;;;;;;5048360;28;20041;-79
2023/12/13 03:12:13;;;;;;;41.40;16.73;;;7.30;99.90;;;;;;5049580;28;20111;-79
2023/12/13 03:14:39;;;;;;;42.33;16.75;;;7.30;99.90;;;;;;5050706;28;20065;-78
2023/12/13 03:17:04;;;;;;;41.08;16.52;;;7.30;99.90;;;;;;5050844;28;20091;-79
2023/12/13 03:19:30;;;;;;;44.80;16.90;;;7.40;99.90;;;;;;5050584;28;20041;-79
2023/12/13 03:21:55;;;;;;;42.10;16.50;;;7.20;99.90;;;;;;5050438;28;20112;-79
2023/12/13 03:24:21;;;;;;;39.70;16.33;;;7.70;99.90;;;;;;5050613;28;20037;-79
2023/12/13 03:26:47;;;;;;;37.58;15.82;;;7.20;99.90;;;;;;5033856;28;20045;-78
2023/12/13 03:29:12;;;;;;;37.42;16.38;;;7.20;99.90;;;;;;5050764;28;20394;-78
2023/12/13 03:31:38;;;;;;;36.25;16.23;;;7.20;99.90;;;;;;5049986;28;20041;-78
2023/12/13 03:34:04;;;;;;;43.83;17.23;;;7.30;99.90;;;;;;5050942;28;20704;-78
2023/12/13 03:36:29;;;;;;;39.55;16.13;;;7.50;99.90;;;;;;5050257;28;20033;-79
2023/12/13 03:38:55;;;;;;;42.38;17.05;;;7.30;99.90;;;;;;5046914;28;20099;-79
2023/12/13 03:41:21;;;;;;;42.50;15.90;;;7.20;99.90;;;;;;5049708;28;20072;-78
2023/12/13 03:43:46;;;;;;;38.65;15.52;;;7.20;99.90;;;;;;5050114;28;20037;-79
2023/12/13 03:46:12;;;;;;;39.25;16.55;;;7.20;99.90;;;;;;5050131;28;20029;-78
2023/12/13 03:48:38;;;;;;;34.42;15.68;;;7.20;99.90;;;;;;5049599;28;20059;-78
2023/12/13 03:51:05;;;;;;;40.03;16.17;;;7.50;99.90;;;;;;5050590;28;20037;-79
2023/12/13 03:53:31;;;;;;;37.03;15.10;;;7.20;99.90;;;;;;5049304;28;20463;-79
2023/12/13 03:55:57;;;;;;;35.70;15.20;;;7.30;99.90;;;;;;5050070;28;20048;-79
2023/12/13 03:58:23;;;;;;;34.30;14.23;;;7.30;99.90;;;;;;5044881;28;20037;-79
2023/12/13 04:00:48;;;;;;;35.83;14.60;;;7.30;99.90;;;;;;5049634;28;20037;-79
2023/12/13 04:03:14;;;;;;;33.95;15.05;;;7.20;99.90;;;;;;5049920;28;20031;-79
2023/12/13 04:05:39;;;;;;;32.63;15.32;;;7.40;99.90;;;;;;5041414;28;20037;-79
2023/12/13 04:08:06;;;;;;;37.13;15.32;;;7.30;99.90;;;;;;5045319;28;20076;-79
2023/12/13 04:10:32;;;;;;;35.28;15.32;;;7.30;99.90;;;;;;5049599;28;20045;-79
2023/12/13 04:12:58;;;;;;;35.15;14.98;;;7.20;99.90;;;;;;5048359;28;20123;-79
2023/12/13 04:15:24;;;;;;;34.63;14.95;;;7.30;99.90;;;;;;5049808;28;20426;-79
2023/12/13 04:17:49;;;;;;;37.45;14.55;;;7.30;99.90;;;;;;5049885;28;20116;-79
2023/12/13 04:20:16;;;;;;;30.40;13.75;;;7.30;99.90;;;;;;5049657;28;20063;-79
2023/12/13 04:22:42;;;;;;;32.60;14.50;;;7.80;99.90;;;;;;5032263;28;20096;-79
2023/12/13 04:25:08;;;;;;;37.25;14.75;;;7.30;99.90;;;;;;5049223;28;20090;-79
2023/12/13 04:27:34;;;;;;;35.65;15.02;;;7.30;99.90;;;;;;5050035;28;20041;-79
2023/12/13 04:29:59;;;;;;;30.73;13.93;;;7.30;99.90;;;;;;5032979;28;20032;-79
2023/12/13 04:32:26;;;;;;;33.53;14.93;;;7.30;99.90;;;;;;5046811;28;20041;-79
2023/12/13 04:34:51;;;;;;;31.58;14.68;;;7.50;99.90;;;;;;5049421;28;20037;-79
2023/12/13 04:37:17;;;;;;;31.38;14.23;;;7.30;99.90;;;;;;5049191;28;20044;-79
2023/12/13 04:39:42;;;;;;;28.80;13.32;;;7.30;99.90;;;;;;5040564;28;20044;-79
2023/12/13 04:42:08;;;;;;;28.85;12.57;;;7.30;99.90;;;;;;5049216;28;20116;-79
2023/12/13 04:44:34;;;;;;;28.83;14.02;;;7.30;99.90;;;;;;5046925;28;20029;-79
2023/12/13 04:46:59;;;;;;;26.23;13.75;;;7.30;99.90;;;;;;5047722;28;20116;-79
2023/12/13 04:49:25;;;;;;;27.42;13.75;;;7.30;99.90;;;;;;5047513;28;20177;-80
2023/12/13 04:51:51;;;;;;;24.77;12.88;;;7.30;99.90;;;;;;5049254;28;20035;-79
2023/12/13 04:54:19;;;;;;;30.02;13.82;;;7.30;99.90;;;;;;5033260;28;20073;-79
2023/12/13 04:56:44;;;;;;;34.33;14.05;;;7.30;99.90;;;;;;5049480;28;20044;-79
2023/12/13 04:59:10;;;;;;;26.13;12.70;;;7.40;99.90;;;;;;5049549;28;20083;-79
2023/12/13 05:01:35;;;;;;;26.55;13.10;;;7.30;99.90;;;;;;5049541;28;20124;-79
2023/12/13 05:04:02;;;;;;;26.05;12.55;;;7.40;99.90;;;;;;5041084;28;20028;-79
2023/12/13 05:06:27;;;;;;;32.78;13.88;;;7.30;99.90;;;;;;5049091;28;20099;-79
2023/12/13 05:08:53;;;;;;;31.52;13.40;;;7.50;99.90;;;;;;5049244;28;20492;-79
2023/12/13 05:11:19;;;;;;;30.92;13.30;;;7.30;99.90;;;;;;5048061;28;20505;-79
2023/12/13 05:13:44;;;;;;;29.30;14.02;;;7.30;99.90;;;;;;5082387;28;20128;-79
2023/12/13 05:16:10;;;;;;;29.17;13.02;;;7.30;99.90;;;;;;5027351;28;20527;-79
2023/12/13 05:18:36;;;;;;;28.23;13.95;;;7.40;99.90;;;;;;5081948;28;20084;-78
2023/12/13 05:21:01;;;;;;;26.35;13.10;;;7.30;99.90;;;;;;5053529;28;20033;-79
2023/12/13 05:23:27;;;;;;;34.65;14.43;;;7.30;99.90;;;;;;5082627;28;20029;-79
2023/12/13 05:25:54;;;;;;;29.50;13.25;;;7.40;99.90;;;;;;5051639;28;20043;-79
2023/12/13 05:28:20;;;;;;;27.13;13.55;;;7.30;99.90;;;;;;5053585;28;20048;-79
2023/12/13 05:30:46;;;;;;;28.02;13.05;;;7.20;99.90;;;;;;5053225;28;20049;-79
2023/12/13 05:33:12;;;;;;;31.65;13.82;;;7.20;99.90;;;;;;5029588;28;20103;-78
2023/12/13 05:35:38;;;;;;;34.47;14.63;;;7.20;99.90;;;;;;5051319;28;20115;-79
2023/12/13 05:38:03;;;;;;;26.75;13.65;;;7.50;99.90;;;;;;5053210;28;20037;-79
2023/12/13 05:40:31;;;;;;;34.38;14.05;;;7.50;99.90;;;;;;5035127;28;20041;-79
2023/12/13 05:42:57;;;;;;;32.20;13.68;;;7.50;99.90;;;;;;5029782;28;20056;-79
2023/12/13 05:45:22;;;;;;;27.77;13.57;;;7.50;99.90;;;;;;5052917;28;20440;-79
2023/12/13 05:47:48;;;;;;;26.30;13.88;;;7.30;99.90;;;;;;5048460;28;20055;-79
2023/12/13 05:50:13;;;;;;;30.98;14.05;;;7.40;99.90;;;;;;5047750;28;20045;-79
2023/12/13 05:52:39;;;;;;;29.67;13.93;;;7.20;99.90;;;;;;5044013;28;20425;-79
2023/12/13 05:55:06;;;;;;;30.92;14.35;;;7.60;99.90;;;;;;5046207;28;20068;-79
2023/12/13 05:57:32;;;;;;;30.98;13.65;;;7.30;99.90;;;;;;5052416;28;20064;-79
2023/12/13 05:59:57;;;;;;;34.80;14.00;;;7.30;99.90;;;;;;5054206;28;20452;-79
2023/12/13 06:02:24;;;;;;;29.42;14.07;;;7.30;99.90;;;;;;5050779;28;20031;-79
2023/12/13 06:04:51;;;;;;;28.05;13.95;;;7.20;99.90;;;;;;5052736;28;20400;-79
2023/12/13 06:07:16;;;;;;;29.17;13.20;;;7.20;99.90;;;;;;5050168;28;20079;-79
2023/12/13 06:09:42;;;;;;;27.75;13.75;;;7.50;99.90;;;;;;5052493;28;20492;-79
2023/12/13 06:12:08;;;;;;;26.15;12.63;;;7.20;99.90;;;;;;5049262;28;20045;-79
2023/12/13 06:14:34;;;;;;;26.83;14.00;;;7.20;99.90;;;;;;5033591;28;20424;-79
2023/12/13 06:16:59;;;;;;;30.02;14.23;;;7.20;99.90;;;;;;5051062;28;20037;-79
2023/12/13 06:19:29;;;;;;;27.60;13.23;;;7.20;99.90;;;;;;5052718;28;20048;-79
2023/12/13 06:21:55;;;;;;;28.58;14.32;;;7.20;99.90;;;;;;5051697;28;20451;-79
2023/12/13 06:24:20;;;;;;;28.88;14.15;;;7.20;99.90;;;;;;5065355;28;20404;-79
2023/12/13 06:26:46;;;;;;;27.42;13.45;;;7.20;99.90;;;;;;5086288;28;20033;-79
2023/12/13 06:29:12;;;;;;;24.77;13.40;;;7.20;99.90;;;;;;5052344;28;20088;-79
2023/12/13 06:31:38;;;;;;;26.83;13.85;;;7.20;99.90;;;;;;5047875;28;20160;-79
2023/12/13 06:34:04;;;;;;;29.77;14.82;;;7.20;99.90;;;;;;5044546;28;20094;-79
2023/12/13 06:36:29;;;;;;;37.40;15.35;;;7.20;99.90;;;;;;5047621;28;20041;-79
2023/12/13 06:38:55;;;;;;;31.38;15.43;;;7.20;99.90;;;;;;5086157;28;20044;-79
2023/12/13 06:41:21;;;;;;;31.52;14.30;;;7.20;99.90;;;;;;5044954;28;20470;-79
2023/12/13 06:43:47;;;;;;;30.73;14.48;;;7.20;99.90;;;;;;5043272;28;20037;-79
2023/12/13 06:46:13;;;;;;;32.42;14.90;;;7.20;99.90;;;;;;5053056;28;20043;-79
2023/12/13 06:48:38;;;;;;;29.77;14.23;;;7.30;99.90;;;;;;5050800;28;20127;-79
2023/12/13 06:51:05;;;;;;;29.83;14.82;;;7.20;99.90;;;;;;5047493;28;20040;-79
2023/12/13 06:53:32;;;;;;;30.92;14.38;;;7.20;99.90;;;;;;5043963;28;20544;-79
2023/12/13 06:55:58;;;;;;;30.48;15.82;;;7.20;99.90;;;;;;5053835;28;20033;-83
2023/12/13 06:58:24;;;;;;;32.33;15.20;;;7.20;99.90;;;;;;5052676;28;20175;-80
2023/12/13 07:00:50;;;;;;;32.08;14.85;;;7.20;99.90;;;;;;5052144;28;20116;-79
2023/12/13 07:03:15;;;;;;;40.38;16.35;;;7.20;99.90;;;;;;5044068;28;20041;-79
2023/12/13 07:05:41;;;;;;;29.65;14.75;;;7.20;99.90;;;;;;5051953;28;20033;-79
2023/12/13 07:08:08;;;;;;;35.53;15.00;;;7.20;99.90;;;;;;5052224;28;20500;-79
2023/12/13 07:10:33;;;;;;;34.53;16.38;;;7.20;99.90;;;;;;5051841;28;20480;-79
2023/12/13 07:12:59;;;;;;;32.55;16.08;;;7.20;99.90;;;;;;5052388;28;20052;-80
2023/12/13 07:15:25;;;;;;;41.47;16.80;;;7.20;99.90;;;;;;5052220;28;20041;-79
2023/12/13 07:17:50;;;;;;;34.30;15.35;;;7.20;99.90;;;;;;5048971;28;20044;-79
2023/12/13 07:20:18;;;;;;;32.88;15.90;;;7.20;99.90;;;;;;5057341;28;20112;-79
2023/12/13 07:22:43;;;;;;;34.70;16.23;;;7.20;99.90;;;;;;5050605;28;20083;-79
2023/12/13 07:25:09;;;;;;;36.60;17.40;;;7.30;99.90;;;;;;5052579;28;20060;-79
2023/12/13 07:27:35;;;;;;;35.00;16.13;;;7.30;99.90;;;;;;5052103;28;20033;-79
2023/12/13 07:30:01;;;;;;;34.17;16.70;;;7.20;99.90;;;;;;5052752;28;20032;-79
2023/12/13 07:32:27;;;;;;;36.05;17.45;;;7.20;99.90;;;;;;5051689;28;20102;-79
2023/12/13 07:34:52;;;;;;;36.85;17.00;;;7.20;99.90;;;;;;5051433;28;20033;-80
2023/12/13 07:37:18;;;;;;;35.20;17.02;;;7.50;99.90;;;;;;5051910;28;20056;-80
2023/12/13 07:39:44;;;;;;;38.35;18.00;;;7.20;99.90;;;;;;5051357;28;20122;-80
2023/12/13 07:42:09;;;;;;;35.78;16.25;;;7.60;99.90;;;;;;5049575;28;20032;-79
2023/12/13 07:44:35;;;;;;;34.38;17.88;;;7.40;99.90;;;;;;5051460;28;20033;-80
2023/12/13 07:47:02;;;;;;;32.53;17.17;;;7.20;99.90;;;;;;5051330;28;20044;-81
2023/12/13 07:49:28;;;;;;;35.83;16.65;;;7.30;99.90;;;;;;5050967;28;20047;-80
2023/12/13 07:51:54;;;;;;;38.97;17.23;;;7.20;99.90;;;;;;5079261;28;20040;-80
2023/12/13 07:54:20;;;;;;;37.40;17.27;;;7.20;99.90;;;;;;5079263;28;20045;-80
2023/12/13 07:56:46;;;;;;;40.92;18.30;;;7.30;99.90;;;;;;5084568;28;20075;-80
2023/12/13 07:59:12;;;;;;;37.63;17.83;;;7.20;99.90;;;;;;5050816;28;20060;-80
2023/12/13 08:01:37;;;;;;;38.08;17.25;;;7.20;99.90;;;;;;5051346;28;20097;-80
2023/12/13 08:04:03;;;;;;;38.85;17.52;;;7.50;99.90;;;;;;5050785;28;20129;-80
2023/12/13 08:06:29;;;;;;;34.78;16.75;;;7.20;99.90;;;;;;5049299;28;20468;-80
2023/12/13 08:08:55;;;;;;;33.85;17.00;;;7.50;99.90;;;;;;5049952;28;20408;-80
2023/12/13 08:11:20;;;;;;;34.22;16.15;;;7.30;99.90;;;;;;5033550;28;20104;-81
2023/12/13 08:13:46;;;;;;;38.47;16.38;;;7.20;99.90;;;;;;5050252;28;20128;-80
2023/12/13 08:16:11;;;;;;;34.15;15.95;;;7.20;99.90;;;;;;5050733;28;20041;-80
2023/12/13 08:18:38;;;;;;;37.15;16.13;;;7.60;99.90;;;;;;5083694;28;20155;-80
2023/12/13 08:21:06;;;;;;;38.22;16.80;;;7.40;99.90;;;;;;5051142;28;20028;-79
2023/12/13 08:23:34;;;;;;;32.17;16.08;;;7.20;99.90;;;;;;5033929;28;20025;-80
2023/12/13 08:26:00;;;;;;;35.25;15.52;;;7.30;99.90;;;;;;5028898;28;20043;-80
2023/12/13 08:28:26;;;;;;;37.40;17.80;;;7.20;99.90;;;;;;5050285;28;20115;-80
2023/12/13 08:30:51;;;;;;;35.70;16.20;;;7.20;99.90;;;;;;5050142;28;20037;-80
2023/12/13 08:33:17;;;;;;;38.50;17.27;;;7.20;99.90;;;;;;5049950;28;20088;-79
2023/12/13 08:35:42;;;;;;;34.65;17.05;;;7.60;99.90;;;;;;5050081;28;20408;-80
2023/12/13 08:38:08;;;;;;;32.75;16.25;;;7.30;99.90;;;;;;5050347;28;20037;-80
2023/12/13 08:40:33;;;;;;;36.88;16.83;;;7.30;99.90;;;;;;5050238;28;20037;-81
2023/12/13 08:42:59;;;;;;;36.13;17.65;;;7.30;99.90;;;;;;5050254;28;20041;-80
2023/12/13 08:45:25;;;;;;;39.75;18.33;;;7.30;99.90;;;;;;5049871;28;20037;-80
2023/12/13 08:47:50;;;;;;;39.80;18.42;;;7.60;99.90;;;;;;5050982;28;20121;-80
2023/12/13 08:50:16;;;;;;;36.05;17.40;;;7.40;99.90;;;;;;5050116;28;20041;-79
2023/12/13 08:52:42;;;;;;;36.17;17.27;;;7.40;99.90;;;;;;5049895;28;20423;-81
2023/12/13 08:55:10;;;;;;;36.75;17.35;;;7.30;99.90;;;;;;5042625;28;20420;-80
2023/12/13 08:57:38;;;;;;;36.75;17.27;;;7.40;99.90;;;;;;5049930;28;20047;-80
2023/12/13 09:00:06;;;;;;;41.20;17.40;;;7.40;99.90;;;;;;5049592;28;20037;-80
2023/12/13 09:02:32;;;;;;;35.35;16.95;;;7.40;99.90;;;;;;5086804;28;20033;-80
2023/12/13 09:04:57;;;;;;;39.75;18.83;;;7.70;99.90;;;;;;5050031;28;20040;-79
2023/12/13 09:07:23;;;;;;;44.30;18.10;;;7.40;99.90;;;;;;5053681;28;20032;-80
2023/12/13 09:09:49;;;;;;;41.53;18.75;;;7.50;99.90;;;;;;5086077;28;20178;-80
2023/12/13 09:12:14;;;;;;;41.40;19.13;;;7.50;99.90;;;;;;5044452;28;20033;-80
2023/12/13 09:14:40;;;;;;;41.33;19.15;;;7.60;99.90;;;;;;5054867;28;20500;-80
2023/12/13 09:17:06;;;;;;;40.28;19.15;;;7.60;99.90;;;;;;5053638;28;20068;-80
2023/12/13 09:19:31;;;;;;;47.25;20.27;;;7.60;99.90;;;;;;5052873;28;20467;-80
2023/12/13 09:21:57;;;;;;;43.92;19.00;;;7.60;99.90;;;;;;5086433;28;20078;-80
2023/12/13 09:24:23;;;;;;;41.58;19.00;;;7.70;99.90;;;;;;5086185;28;20033;-81
2023/12/13 09:26:51;;;;;;;38.20;18.38;;;7.60;99.90;;;;;;5086715;28;20037;-80
2023/12/13 09:29:17;;;;;;;41.10;19.42;;;7.90;99.90;;;;;;5053322;28;20048;-80
2023/12/13 09:31:42;;;;;;;45.65;19.98;;;7.60;99.90;;;;;;5052647;28;20045;-81
2023/12/13 09:34:08;;;;;;;46.10;19.27;;;7.70;99.90;;;;;;5056916;28;20401;-79
2023/12/13 09:36:34;;;;;;;43.38;20.73;;;7.80;99.90;;;;;;5052393;28;20115;-80
2023/12/13 09:38:59;;;;;;;45.03;20.85;;;7.80;99.90;;;;;;5081680;28;20036;-80
2023/12/13 09:41:30;;;;;;;43.13;19.95;;;7.80;99.90;;;;;;5034589;28;20045;-81
2023/12/13 09:43:57;;;;;;;45.85;20.48;;;7.80;99.90;;;;;;5080596;28;20516;-80
2023/12/13 09:46:25;;;;;;;38.90;19.15;;;7.80;99.90;;;;;;5049067;28;20212;-80
2023/12/13 09:48:51;;;;;;;44.05;20.08;;;7.80;99.90;;;;;;5055543;28;20039;-80
2023/12/13 09:51:19;;;;;;;40.13;20.02;;;7.90;99.90;;;;;;5052584;28;20041;-80
2023/12/13 09:53:48;;;;;;;41.58;20.13;;;7.90;99.90;;;;;;5052805;28;20056;-81
2023/12/13 09:56:13;;;;;;;46.25;20.45;;;7.90;99.90;;;;;;5052136;28;20036;-80
2023/12/13 09:58:39;;;;;;;38.78;20.65;;;8.00;99.90;;;;;;5052722;28;20033;-80
2023/12/13 10:01:12;;;;;;;41.25;20.13;;;8.10;99.90;;;;;;5052687;28;20037;-80
2023/12/13 10:03:42;;;;;;;42.17;21.05;;;8.20;99.90;;;;;;5086518;28;20070;-80
2023/12/13 10:06:08;;;;;;;42.25;20.20;;;8.20;99.90;;;;;;5051539;28;20028;-80
2023/12/13 10:08:35;;;;;;;44.15;20.08;;;8.20;99.90;;;;;;5048805;28;20068;-80
2023/12/13 10:11:06;;;;;;;39.72;20.23;;;8.20;99.90;;;;;;5036018;28;20037;-80
2023/12/13 10:13:34;;;;;;;44.13;19.63;;;8.00;99.90;;;;;;5053453;28;20056;-80
2023/12/13 10:16:10;;;;;;;36.65;19.08;;;8.10;99.90;;;;;;5053135;28;20044;-80
2023/12/13 10:18:36;;;;;;;40.78;19.50;;;8.10;99.90;;;;;;5052809;28;20037;-81
2023/12/13 10:21:03;;;;;;;38.53;20.00;;;8.40;99.90;;;;;;5052725;28;20029;-80
2023/12/13 10:23:29;;;;;;;42.17;21.02;;;8.20;99.90;;;;;;5052730;28;20040;-80
2023/12/13 10:25:55;;;;;;;41.38;19.83;;;8.20;99.90;;;;;;5051622;28;20044;-81
2023/12/13 10:28:22;;;;;;;39.72;19.67;;;8.10;99.90;;;;;;5050713;28;20041;-80
2023/12/13 10:30:51;;;;;;;47.80;22.02;;;8.50;99.90;;;;;;5050578;28;20087;-81
2023/12/13 10:33:17;;;;;;;41.65;20.40;;;8.20;99.90;;;;;;5050501;28;20123;-80
2023/12/13 10:35:43;;;;;;;41.13;20.08;;;8.20;99.90;;;;;;5052120;28;20449;-81
2023/12/13 10:38:15;;;;;;;42.78;20.17;;;8.20;99.90;;;;;;5051713;28;20091;-78
2023/12/13 10:40:44;;;;;;;41.85;19.85;;;8.30;99.90;;;;;;5051454;28;20033;-80
2023/12/13 10:43:11;;;;;;;48.78;20.08;;;8.20;99.90;;;;;;5028214;28;20048;-81
2023/12/13 10:45:49;;;;;;;51.65;21.20;;;8.40;99.90;;;;;;5081789;28;20040;-80
2023/12/13 10:48:16;;;;;;;46.00;20.45;;;8.30;99.90;;;;;;5052398;28;20051;-80
2023/12/13 10:50:45;;;;;;;50.67;20.00;;;8.30;99.90;;;;;;5051750;28;20048;-81
2023/12/13 10:53:12;;;;;;;44.80;20.88;;;8.50;99.90;;;;;;5052604;28;20059;-80
2023/12/13 10:55:39;;;;;;;47.13;21.25;;;8.50;99.90;;;;;;5052968;28;20040;-81
2023/12/13 10:58:05;;;;;;;47.90;19.83;;;8.60;99.90;;;;;;5052884;28;20041;-81
2023/12/13 11:00:32;;;;;;;43.50;20.45;;;8.60;99.90;;;;;;5053289;28;20055;-81
2023/12/13 11:03:11;;;;;;;41.38;19.98;;;8.40;99.90;;;;;;5051611;28;20404;-79
2023/12/13 11:05:37;;;;;;;48.13;21.85;;;8.50;99.90;;;;;;5086781;28;20037;-81
2023/12/13 11:08:14;;;;;;;44.63;20.80;;;8.70;99.90;;;;;;5053126;28;20090;-80
2023/12/13 11:10:40;;;;;;;49.30;21.63;;;8.50;99.90;;;;;;5052731;28;20041;-80
2023/12/13 11:13:06;;;;;;;45.90;20.90;;;8.60;99.90;;;;;;5053105;28;20087;-81
2023/12/13 11:15:31;;;;;;;50.80;20.73;;;8.60;99.90;;;;;;5051649;28;20041;-80
2023/12/13 11:18:00;;;;;;;52.88;21.05;;;8.50;99.90;;;;;;5052743;28;20033;-80
2023/12/13 11:20:26;;;;;;;46.40;19.52;;;8.70;99.90;;;;;;5052902;28;20040;-80
2023/12/13 11:22:56;;;;;;;43.35;19.58;;;8.60;99.90;;;;;;5051732;28;20117;-80
2023/12/13 11:25:34;;;;;;;41.45;19.80;;;8.60;99.90;;;;;;5035962;28;20116;-81
2023/12/13 11:28:00;;;;;;;41.78;20.58;;;8.50;99.90;;;;;;5053283;28;20067;-80
2023/12/13 11:30:26;;;;;;;37.53;19.23;;;8.50;99.90;;;;;;5053166;28;20045;-80
2023/12/13 11:32:51;;;;;;;38.33;19.15;;;8.50;99.90;;;;;;5053526;28;20067;-81
2023/12/13 11:35:19;;;;;;;43.10;19.73;;;8.50;99.90;;;;;;5053158;28;20083;-81
2023/12/13 11:37:52;;;;;;;43.35;19.13;;;8.40;99.90;;;;;;5052939;28;20462;-80
2023/12/13 11:40:19;;;;;;;37.78;19.60;;;8.40;99.90;;;;;;5036394;28;20048;-80
2023/12/13 11:42:45;;;;;;;44.58;19.33;;;8.40;99.90;;;;;;5052886;28;20100;-81
2023/12/13 11:45:11;;;;;;;46.08;19.63;;;8.60;99.90;;;;;;5059788;28;20091;-80
2023/12/13 11:47:39;;;;;;;40.20;19.63;;;8.60;99.90;;;;;;5053302;28;20439;-80
2023/12/13 11:50:05;;;;;;;42.75;19.48;;;8.50;99.90;;;;;;5052326;28;20354;-80
2023/12/13 11:52:31;;;;;;;39.20;19.08;;;8.50;99.90;;;;;;5051864;28;20041;-80
2023/12/13 11:55:00;;;;;;;45.60;20.33;;;8.60;99.90;;;;;;5035362;28;20086;-80
2023/12/13 11:57:25;;;;;;;40.47;20.23;;;8.70;99.90;;;;;;5051772;28;20053;-81
2023/12/13 11:59:51;;;;;;;41.03;19.25;;;8.80;99.90;;;;;;5051859;28;20493;-80
2023/12/13 12:02:17;;;;;;;47.75;20.02;;;8.60;99.90;;;;;;5052220;28;20048;-80
2023/12/13 12:04:43;;;;;;;48.15;19.35;;;8.60;99.90;;;;;;5052180;28;20551;-81
2023/12/13 12:07:14;;;;;;;50.75;20.58;;;8.90;99.90;;;;;;5051670;28;20092;-81
2023/12/13 12:09:40;;;;;;;49.13;21.25;;;8.60;99.90;;;;;;5051734;28;20045;-81
2023/12/13 12:12:09;;;;;;;47.67;20.23;;;8.60;99.90;;;;;;5051862;28;20155;-80
2023/12/13 12:14:34;;;;;;;54.45;20.85;;;8.70;99.90;;;;;;5051888;28;20086;-80
2023/12/13 12:17:01;;;;;;;43.35;19.98;;;8.60;99.90;;;;;;5035990;28;20396;-82
2023/12/13 12:19:29;;;;;;;46.28;20.27;;;8.60;99.90;;;;;;5052286;28;20095;-81
2023/12/13 12:21:55;;;;;;;40.30;20.02;;;8.60;99.90;;;;;;5051904;28;20091;-80
2023/12/13 12:24:27;;;;;;;43.05;19.27;;;8.60;99.90;;;;;;5085510;28;20044;-80
2023/12/13 12:26:54;;;;;;;42.15;19.58;;;8.70;99.90;;;;;;5051517;28;20033;-80
2023/12/13 12:29:20;;;;;;;53.72;21.17;;;8.70;99.90;;;;;;5052229;28;20036;-81
2023/12/13 12:31:46;;;;;;;45.75;19.33;;;8.50;99.90;;;;;;5052143;28;20048;-80
2023/12/13 12:34:12;;;;;;;49.42;19.83;;;8.60;99.90;;;;;;5050265;28;20038;-81